createdAt,value
2019-06-27T00:02:30.909Z,2.33
2019-06-27T00:05:00.949Z,2.43
2019-06-27T00:07:31.402Z,2.20
2019-06-27T00:10:01.499Z,2.70
2019-06-27T00:12:31.597Z,2.50
2019-06-27T00:15:01.795Z,2.27
2019-06-27T00:17:31.931Z,2.70
2019-06-27T00:20:02.009Z,2.50
2019-06-27T00:22:32.549Z,2.47
2019-06-27T00:25:02.641Z,2.70
2019-06-27T00:27:32.687Z,2.53
2019-06-27T00:30:02.745Z,2.47
2019-06-27T00:32:32.790Z,2.90
2019-06-27T00:35:02.927Z,2.90
2019-06-27T00:37:33.058Z,2.87
2019-06-27T00:40:03.147Z,2.60
2019-06-27T00:42:33.245Z,2.80
2019-06-27T00:45:03.311Z,3.13
2019-06-27T00:47:33.659Z,2.57
2019-06-27T00:50:03.979Z,3.50
2019-06-27T00:52:34.147Z,3.50
2019-06-27T00:55:04.365Z,3.73
2019-06-27T00:57:34.566Z,3.33
2019-06-27T01:00:04.815Z,4.50
2019-06-27T01:02:34.927Z,4.27
2019-06-27T01:05:05.282Z,4.57
2019-06-27T01:07:36.667Z,4.47
2019-06-27T01:10:07.252Z,4.53
2019-06-27T01:12:38.363Z,4.27
2019-06-27T01:15:09.375Z,4.57
2019-06-27T01:17:39.508Z,4.60
2019-06-27T01:20:09.795Z,4.97
2019-06-27T01:22:40.305Z,4.30
2019-06-27T01:25:10.362Z,5.63
2019-06-27T01:27:41.529Z,5.00
2019-06-27T01:30:12.168Z,5.43
2019-06-27T01:32:42.214Z,4.40
2019-06-27T01:35:12.806Z,5.00
2019-06-27T01:37:43.293Z,5.17
2019-06-27T01:40:13.675Z,5.00
2019-06-27T01:42:44.244Z,5.13
2019-06-27T01:45:32.377Z,4.73
2019-06-27T01:48:02.467Z,5.07
2019-06-27T01:50:32.902Z,6.10
2019-06-27T01:53:02.923Z,5.83
2019-06-27T01:55:34.058Z,5.80
2019-06-27T01:58:04.159Z,6.03
2019-06-27T02:00:34.965Z,6.33
2019-06-27T02:03:05.009Z,5.87
2019-06-27T02:05:35.104Z,5.67
2019-06-27T02:08:05.290Z,6.03
2019-06-27T02:10:35.617Z,5.67
2019-06-27T02:13:05.759Z,5.40
2019-06-27T02:15:35.893Z,5.30
2019-06-27T02:18:06.154Z,5.27
2019-06-27T02:20:36.220Z,5.07
2019-06-27T02:23:06.364Z,5.17
2019-06-27T02:25:37.095Z,5.33
2019-06-27T02:28:07.169Z,5.77
2019-06-27T02:30:42.805Z,5.47
2019-06-27T02:33:12.948Z,5.73
2019-06-27T02:35:43.219Z,5.87
2019-06-27T02:38:13.289Z,5.60
2019-06-27T02:40:43.355Z,5.50
2019-06-27T02:43:13.374Z,5.20
2019-06-27T02:45:43.724Z,4.60
2019-06-27T02:48:13.765Z,4.97
2019-06-27T02:50:43.795Z,5.47
2019-06-27T02:53:13.864Z,5.53
2019-06-27T02:55:43.929Z,4.90
2019-06-27T02:58:29.551Z,3.97
2019-06-27T03:00:45.781Z,4.90
2019-06-27T03:03:15.939Z,4.70
2019-06-27T03:05:45.986Z,4.27
2019-06-27T03:08:16.067Z,4.07
2019-06-27T03:10:46.790Z,4.40
2019-06-27T03:13:17.474Z,3.83
2019-06-27T03:15:48.231Z,3.87
2019-06-27T03:18:18.885Z,3.70
2019-06-27T03:20:49.538Z,3.83
2019-06-27T03:23:20.273Z,3.70
2019-06-27T03:25:51.139Z,3.50
2019-06-27T03:28:21.758Z,3.07
2019-06-27T03:30:52.591Z,3.70
2019-06-27T03:33:23.252Z,2.97
2019-06-27T03:35:53.991Z,3.00
2019-06-27T03:38:24.731Z,2.67
2019-06-27T03:40:55.512Z,3.43
2019-06-27T03:43:26.448Z,2.53
2019-06-27T03:45:57.309Z,2.50
2019-06-27T03:48:29.127Z,3.03
2019-06-27T03:50:59.815Z,2.70
2019-06-27T03:53:30.536Z,2.80
2019-06-27T03:56:01.212Z,2.97
2019-06-27T03:58:33.131Z,2.50
2019-06-27T04:01:04.010Z,2.60
2019-06-27T04:03:34.772Z,2.83
2019-06-27T04:06:05.444Z,2.50
2019-06-27T04:08:36.326Z,2.80
2019-06-27T04:11:07.979Z,2.40
2019-06-27T04:13:39.128Z,2.37
2019-06-27T04:16:10.204Z,2.30
2019-06-27T04:18:42.405Z,2.60
2019-06-27T04:21:13.578Z,2.37
2019-06-27T04:23:44.292Z,2.37
2019-06-27T04:26:14.998Z,2.23
2019-06-27T04:28:45.627Z,2.63
2019-06-27T04:31:16.291Z,2.53
2019-06-27T04:33:47.179Z,2.73
2019-06-27T04:36:17.898Z,2.60
2019-06-27T04:38:48.520Z,2.83
2019-06-27T04:41:19.190Z,2.77
2019-06-27T04:43:49.851Z,2.50
2019-06-27T04:46:20.554Z,2.77
2019-06-27T04:48:51.266Z,2.90
2019-06-27T04:51:21.966Z,2.47
2019-06-27T04:53:52.632Z,2.57
2019-06-27T04:56:23.263Z,2.37
2019-06-27T04:58:53.981Z,2.70
2019-06-27T05:01:24.637Z,2.60
2019-06-27T05:03:55.305Z,2.17
2019-06-27T05:06:25.925Z,2.70
2019-06-27T05:08:56.576Z,2.60
2019-06-27T05:11:27.233Z,2.37
2019-06-27T05:13:57.874Z,2.87
2019-06-27T05:16:28.834Z,2.40
2019-06-27T05:18:59.549Z,2.37
2019-06-27T05:21:30.219Z,2.30
2019-06-27T05:24:00.869Z,2.17
2019-06-27T05:26:31.558Z,2.40
2019-06-27T05:29:02.503Z,2.17
2019-06-27T05:31:33.973Z,3.00
2019-06-27T05:34:04.611Z,2.30
2019-06-27T05:36:35.323Z,2.20
2019-06-27T05:39:06.619Z,3.00
2019-06-27T05:41:37.285Z,2.57
2019-06-27T05:44:26.992Z,2.90
2019-06-27T05:46:58.264Z,2.03
2019-06-27T05:49:29.461Z,2.60
2019-06-27T05:52:00.212Z,2.20
2019-06-27T05:54:30.855Z,3.00
2019-06-27T05:57:01.606Z,2.10
2019-06-27T05:59:32.241Z,2.90
2019-06-27T06:02:03.052Z,2.03
2019-06-27T06:04:34.357Z,2.83
2019-06-27T06:07:05.123Z,2.97
2019-06-27T06:09:35.764Z,2.40
2019-06-27T06:12:06.485Z,2.47
2019-06-27T06:14:37.168Z,2.93
2019-06-27T06:17:07.943Z,2.23
2019-06-27T06:19:38.634Z,2.70
2019-06-27T06:22:09.328Z,2.30
2019-06-27T06:24:40.938Z,2.50
2019-06-27T06:27:11.609Z,2.23
2019-06-27T06:29:42.266Z,2.30
2019-06-27T06:32:12.937Z,2.73
2019-06-27T06:34:43.773Z,2.70
2019-06-27T06:37:14.458Z,2.43
2019-06-27T06:39:45.495Z,2.60
2019-06-27T06:42:16.189Z,2.30
2019-06-27T06:44:47.612Z,2.57
2019-06-27T06:47:18.471Z,2.30
2019-06-27T06:49:49.930Z,2.03
2019-06-27T06:52:20.596Z,2.00
2019-06-27T06:54:51.443Z,2.53
2019-06-27T06:57:22.434Z,2.27
2019-06-27T06:59:53.130Z,2.03
2019-06-27T07:02:23.839Z,1.90
2019-06-27T07:04:54.553Z,2.10
2019-06-27T07:07:25.297Z,2.27
2019-06-27T07:09:56.082Z,1.90
2019-06-27T07:12:26.798Z,1.77
2019-06-27T07:14:57.463Z,2.40
2019-06-27T07:17:28.294Z,2.53
2019-06-27T07:19:58.954Z,2.00
2019-06-27T07:22:30.102Z,2.13
2019-06-27T07:25:03.619Z,2.07
2019-06-27T07:27:34.559Z,2.10
2019-06-27T07:30:09.661Z,1.93
2019-06-27T07:32:41.878Z,1.83
2019-06-27T07:35:12.686Z,2.50
2019-06-27T07:37:43.370Z,1.90
2019-06-27T07:40:14.260Z,2.00
2019-06-27T07:42:45.342Z,2.13
2019-06-27T07:45:16.106Z,2.20
2019-06-27T07:47:46.757Z,2.40
2019-06-27T07:50:17.931Z,2.07
2019-06-27T07:52:48.872Z,2.10
2019-06-27T07:55:21.049Z,2.70
2019-06-27T07:57:52.602Z,2.20
2019-06-27T08:00:24.682Z,2.63
2019-06-27T08:02:55.430Z,2.57
2019-06-27T08:05:27.204Z,2.33
2019-06-27T08:07:57.879Z,1.83
2019-06-27T08:10:28.750Z,2.43
2019-06-27T08:12:59.634Z,2.30
2019-06-27T08:15:30.304Z,1.90
2019-06-27T08:18:01.003Z,2.00
2019-06-27T08:20:31.663Z,1.50
2019-06-27T08:23:02.404Z,2.53
2019-06-27T08:25:33.888Z,2.03
2019-06-27T08:28:04.646Z,2.30
2019-06-27T08:30:35.337Z,2.10
2019-06-27T08:33:06.033Z,2.30
2019-06-27T08:35:36.686Z,2.30
2019-06-27T08:38:07.403Z,1.90
2019-06-27T08:40:38.157Z,1.77
2019-06-27T08:43:08.848Z,2.10
2019-06-27T08:45:40.326Z,2.47
2019-06-27T08:48:11.087Z,2.50
2019-06-27T08:50:41.831Z,2.30
2019-06-27T08:53:12.537Z,2.13
2019-06-27T08:55:43.296Z,2.10
2019-06-27T08:58:13.942Z,2.40
2019-06-27T09:00:45.991Z,1.87
2019-06-27T09:03:16.853Z,1.90
2019-06-27T09:05:47.537Z,2.37
2019-06-27T09:08:18.191Z,2.23
2019-06-27T09:11:01.189Z,1.90
2019-06-27T09:13:35.866Z,2.33
2019-06-27T09:16:07.825Z,1.77
2019-06-27T09:18:40.245Z,2.30
2019-06-27T09:21:13.682Z,2.70
2019-06-27T09:23:44.447Z,2.20
2019-06-27T09:26:15.094Z,2.20
2019-06-27T09:28:45.784Z,2.30
2019-06-27T09:31:16.429Z,2.13
2019-06-27T09:33:47.127Z,1.80
2019-06-27T09:36:17.757Z,2.37
2019-06-27T09:38:48.458Z,1.93
2019-06-27T09:41:19.180Z,1.90
2019-06-27T09:43:49.854Z,2.10
2019-06-27T09:46:20.540Z,1.80
2019-06-27T09:48:51.289Z,1.70
2019-06-27T09:51:21.998Z,2.10
2019-06-27T09:53:52.673Z,1.87
2019-06-27T09:56:23.315Z,1.53
2019-06-27T09:58:54.359Z,2.10
2019-06-27T10:01:25.027Z,1.73
2019-06-27T10:03:56.025Z,1.80
2019-06-27T10:06:26.679Z,1.80
2019-06-27T10:08:58.231Z,2.07
2019-06-27T10:11:28.923Z,1.90
2019-06-27T10:14:00.358Z,1.70
2019-06-27T10:16:31.704Z,1.87
2019-06-27T10:19:02.361Z,1.80
2019-06-27T10:21:33.203Z,2.17
2019-06-27T10:24:03.916Z,2.50
2019-06-27T10:26:34.636Z,2.30
2019-06-27T10:29:05.400Z,2.60
2019-06-27T10:31:36.632Z,2.00
2019-06-27T10:34:07.330Z,2.17
2019-06-27T10:36:38.634Z,2.27
2019-06-27T10:39:09.296Z,2.07
2019-06-27T10:41:40.019Z,1.90
2019-06-27T10:44:12.090Z,2.10
2019-06-27T10:46:43.693Z,2.23
2019-06-27T10:49:14.377Z,2.30
2019-06-27T10:51:46.961Z,1.57
2019-06-27T10:54:17.726Z,1.80
2019-06-27T10:56:48.551Z,2.10
2019-06-27T10:59:19.399Z,2.30
2019-06-27T11:01:50.406Z,2.30
2019-06-27T11:04:21.165Z,2.00
2019-06-27T11:06:51.984Z,1.93
2019-06-27T11:09:22.802Z,2.00
2019-06-27T11:11:54.951Z,2.17
2019-06-27T11:14:27.940Z,2.10
2019-06-27T11:16:58.866Z,1.90
2019-06-27T11:19:29.737Z,1.90
2019-06-27T11:22:01.105Z,2.23
2019-06-27T11:24:31.768Z,2.67
2019-06-27T11:27:03.134Z,2.13
2019-06-27T11:29:33.849Z,2.20
2019-06-27T11:32:04.817Z,1.80
2019-06-27T11:34:36.102Z,2.10
2019-06-27T11:37:06.899Z,2.20
2019-06-27T11:39:38.373Z,2.23
2019-06-27T11:42:09.021Z,2.17
2019-06-27T11:44:40.459Z,2.20
2019-06-27T11:47:11.207Z,2.00
2019-06-27T11:49:43.135Z,2.00
2019-06-27T11:52:13.829Z,2.00
2019-06-27T11:54:44.777Z,2.33
2019-06-27T11:57:15.432Z,2.23
2019-06-27T11:59:46.055Z,2.03
2019-06-27T12:02:16.765Z,1.90
2019-06-27T12:04:47.476Z,1.93
2019-06-27T12:07:18.352Z,2.47
2019-06-27T12:09:49.050Z,1.90
2019-06-27T12:12:19.740Z,2.30
2019-06-27T12:14:50.445Z,2.10
2019-06-27T12:17:21.097Z,1.93
2019-06-27T12:19:51.137Z,2.50
2019-06-27T12:22:21.214Z,2.13
2019-06-27T12:24:51.294Z,1.97
2019-06-27T12:27:21.358Z,2.30
2019-06-27T12:29:51.462Z,2.20
2019-06-27T12:32:21.566Z,1.67
2019-06-27T12:34:51.795Z,2.37
2019-06-27T12:37:22.873Z,2.07
2019-06-27T12:39:52.983Z,2.37
2019-06-27T12:42:32.389Z,2.40
2019-06-27T12:44:54.885Z,1.80
2019-06-27T12:47:25.034Z,2.57
2019-06-27T12:50:02.186Z,2.10
2019-06-27T12:52:26.938Z,2.37
2019-06-27T12:54:57.175Z,2.17
2019-06-27T12:57:27.230Z,2.57
2019-06-27T12:59:58.278Z,2.30
2019-06-27T13:02:28.346Z,2.70
2019-06-27T13:04:59.795Z,2.53
2019-06-27T13:07:33.808Z,2.60
2019-06-27T13:10:01.679Z,2.20
2019-06-27T13:12:31.719Z,2.20
2019-06-27T13:15:01.807Z,2.70
2019-06-27T13:17:31.882Z,2.30
2019-06-27T13:20:02.391Z,2.27
2019-06-27T13:22:33.815Z,4.27
2019-06-27T13:25:03.876Z,2.27
2019-06-27T13:27:34.016Z,2.02
2019-06-27T13:30:04.366Z,2.08
2019-06-27T13:32:34.462Z,2.20
2019-06-27T13:35:06.996Z,2.30
2019-06-27T13:37:37.567Z,2.33
2019-06-27T13:40:08.352Z,2.55
2019-06-27T13:42:40.045Z,2.08
2019-06-27T13:45:10.687Z,1.80
2019-06-27T13:47:40.768Z,1.70
2019-06-27T13:50:10.991Z,2.30
2019-06-27T13:52:41.120Z,2.00
2019-06-27T13:55:13.129Z,2.02
2019-06-27T13:57:43.334Z,1.90
2019-06-27T14:00:13.665Z,2.35
2019-06-27T14:02:43.721Z,5.42
2019-06-27T14:05:13.993Z,2.62
2019-06-27T14:07:44.082Z,3.22
2019-06-27T14:10:17.406Z,2.42
2019-06-27T14:12:47.835Z,2.72
2019-06-27T14:15:18.331Z,2.70
2019-06-27T14:17:48.432Z,2.62
2019-06-27T14:20:18.525Z,2.15
2019-06-27T14:22:48.648Z,2.17
2019-06-27T14:25:18.686Z,1.90
2019-06-27T14:27:48.741Z,2.65
2019-06-27T14:30:19.119Z,1.87
2019-06-27T14:33:00.234Z,2.70
2019-06-27T14:35:43.154Z,2.00
2019-06-27T14:38:21.952Z,2.17
2019-06-27T14:41:00.878Z,1.90
2019-06-27T14:43:37.940Z,2.00
2019-06-27T14:46:16.454Z,3.40
2019-06-27T14:48:49.832Z,2.33
2019-06-27T14:51:24.149Z,2.60
2019-06-27T14:53:54.381Z,2.60
2019-06-27T14:56:24.482Z,2.00
2019-06-27T14:58:54.577Z,2.20
2019-06-27T15:01:24.621Z,2.70
2019-06-27T15:03:56.023Z,2.52
2019-06-27T15:06:26.093Z,2.17
2019-06-27T15:09:02.515Z,3.00
2019-06-27T15:11:34.660Z,2.65
2019-06-27T15:14:05.174Z,2.42
2019-06-27T15:16:44.586Z,2.15
2019-06-27T15:19:15.698Z,2.37
2019-06-27T15:21:45.772Z,1.70
2019-06-27T15:24:15.971Z,2.10
2019-06-27T15:26:46.039Z,2.50
2019-06-27T15:29:16.169Z,1.63
2019-06-27T15:31:46.240Z,1.67
2019-06-27T15:34:16.932Z,2.50
2019-06-27T15:36:48.460Z,2.50
2019-06-27T15:39:22.231Z,3.77
2019-06-27T15:41:53.125Z,1.80
2019-06-27T15:44:23.228Z,3.30
2019-06-27T15:46:54.422Z,2.30
2019-06-27T15:49:25.154Z,1.97
2019-06-27T15:51:55.299Z,1.80
2019-06-27T15:54:25.558Z,1.60
2019-06-27T15:56:55.748Z,1.40
2019-06-27T15:59:25.794Z,2.17
2019-06-27T16:01:55.908Z,1.80
2019-06-27T16:04:32.768Z,2.07
2019-06-27T16:06:58.081Z,1.60
2019-06-27T16:09:28.169Z,1.87
2019-06-27T16:11:58.564Z,2.30
2019-06-27T16:14:28.619Z,2.50
2019-06-27T16:16:58.772Z,1.70
2019-06-27T16:19:28.908Z,1.87
2019-06-27T16:21:59.003Z,1.73
2019-06-27T16:24:31.218Z,1.73
2019-06-27T16:27:01.280Z,3.17
2019-06-27T16:29:31.332Z,2.50
2019-06-27T16:32:01.691Z,2.63
2019-06-27T16:34:32.169Z,4.63
2019-06-27T16:37:02.305Z,4.60
2019-06-27T16:39:32.379Z,2.47
2019-06-27T16:42:02.502Z,3.27
2019-06-27T16:44:32.667Z,6.20
2019-06-27T16:47:02.708Z,1.80
2019-06-27T16:49:33.411Z,3.73
2019-06-27T16:52:03.522Z,1.67
2019-06-27T16:54:33.629Z,1.90
2019-06-27T16:57:03.769Z,2.20
2019-06-27T16:59:34.277Z,2.20
2019-06-27T17:02:06.998Z,2.20
2019-06-27T17:04:36.530Z,1.93
2019-06-27T17:07:06.617Z,2.10
2019-06-27T17:09:36.775Z,2.00
2019-06-27T17:12:06.931Z,1.80
2019-06-27T17:14:36.982Z,1.90
2019-06-27T17:17:07.108Z,1.87
2019-06-27T17:19:37.564Z,1.80
2019-06-27T17:22:07.788Z,2.20
2019-06-27T17:24:38.208Z,2.53
2019-06-27T17:27:08.357Z,2.50
2019-06-27T17:29:38.481Z,2.13
2019-06-27T17:32:08.638Z,2.27
2019-06-27T17:34:40.297Z,2.17
2019-06-27T17:37:11.578Z,2.17
2019-06-27T17:39:42.452Z,2.70
2019-06-27T17:42:12.516Z,2.73
2019-06-27T17:44:42.867Z,2.30
2019-06-27T17:47:13.050Z,2.63
2019-06-27T17:49:43.101Z,2.30
2019-06-27T17:52:13.204Z,2.20
2019-06-27T17:54:43.734Z,2.23
2019-06-27T17:57:13.798Z,2.17
2019-06-27T17:59:43.831Z,2.23
2019-06-27T18:02:13.930Z,2.07
2019-06-27T18:04:44.103Z,1.90
2019-06-27T18:07:15.257Z,2.10
2019-06-27T18:09:45.347Z,2.40
2019-06-27T18:12:15.423Z,2.23
2019-06-27T18:14:45.471Z,2.20
2019-06-27T18:17:15.592Z,2.30
2019-06-27T18:19:45.651Z,2.20
2019-06-27T18:22:15.726Z,2.30
2019-06-27T18:24:45.851Z,2.40
2019-06-27T18:27:16.174Z,2.37
2019-06-27T18:29:48.016Z,2.03
2019-06-27T18:32:17.975Z,2.20
2019-06-27T18:34:48.067Z,2.93
2019-06-27T18:37:29.325Z,2.20
2019-06-27T18:39:49.882Z,2.17
2019-06-27T18:42:19.928Z,2.30
2019-06-27T18:44:49.998Z,2.23
2019-06-27T18:47:20.052Z,2.03
2019-06-27T18:49:50.142Z,2.30
2019-06-27T18:52:20.175Z,2.37
2019-06-27T18:54:50.256Z,2.37
2019-06-27T18:57:20.302Z,2.50
2019-06-27T18:59:53.543Z,2.63
2019-06-27T19:02:22.207Z,2.33
2019-06-27T19:04:52.336Z,2.30
2019-06-27T19:07:22.510Z,2.53
2019-06-27T19:09:52.774Z,2.13
2019-06-27T19:12:22.962Z,2.57
2019-06-27T19:14:52.994Z,2.23
2019-06-27T19:17:26.652Z,2.37
2019-06-27T19:19:57.756Z,2.70
2019-06-27T19:22:55.986Z,2.20
2019-06-27T19:25:30.785Z,2.37
2019-06-27T19:28:00.854Z,2.30
2019-06-27T19:30:31.935Z,1.80
2019-06-27T19:33:02.007Z,2.00
2019-06-27T19:35:33.212Z,1.73
2019-06-27T19:38:03.420Z,1.90
2019-06-27T19:40:33.965Z,1.90
2019-06-27T19:43:04.112Z,1.80
2019-06-27T19:45:34.171Z,2.13
2019-06-27T19:48:04.249Z,2.00
2019-06-27T19:50:34.383Z,2.07
2019-06-27T19:53:04.442Z,1.97
2019-06-27T19:55:37.463Z,2.00
2019-06-27T19:58:07.123Z,1.50
2019-06-27T20:00:37.308Z,1.70
2019-06-27T20:03:07.379Z,1.90
2019-06-27T20:05:37.480Z,1.90
2019-06-27T20:08:18.589Z,1.70
2019-06-27T20:10:39.829Z,1.67
2019-06-27T20:13:09.891Z,1.57
2019-06-27T20:15:40.589Z,1.47
2019-06-27T20:18:10.641Z,1.80
2019-06-27T20:20:40.751Z,1.37
2019-06-27T20:23:10.857Z,1.53
2019-06-27T20:25:41.411Z,1.30
2019-06-27T20:28:11.596Z,1.40
2019-06-27T20:30:42.046Z,1.37
2019-06-27T20:33:12.194Z,1.40
2019-06-27T20:35:42.405Z,1.23
2019-06-27T20:38:12.517Z,1.30
2019-06-27T20:40:42.828Z,1.57
2019-06-27T20:43:12.860Z,1.43
2019-06-27T20:45:43.356Z,1.10
2019-06-27T20:48:13.407Z,1.13
2019-06-27T20:50:43.534Z,1.33
2019-06-27T20:53:13.574Z,1.37
2019-06-27T20:55:43.961Z,1.23
2019-06-27T20:58:13.995Z,1.33
2019-06-27T21:00:44.083Z,1.73
2019-06-27T21:03:14.255Z,1.53
2019-06-27T21:05:44.337Z,1.40
2019-06-27T21:08:14.384Z,1.30
2019-06-27T21:10:44.762Z,1.50
2019-06-27T21:13:14.911Z,1.43
2019-06-27T21:15:44.998Z,1.67
2019-06-27T21:18:15.019Z,1.60
2019-06-27T21:20:45.079Z,1.50
2019-06-27T21:23:15.262Z,1.17
2019-06-27T21:25:45.419Z,1.50
2019-06-27T21:28:15.763Z,1.10
2019-06-27T21:30:46.354Z,1.57
2019-06-27T21:33:16.393Z,1.50
2019-06-27T21:35:46.475Z,1.23
2019-06-27T21:38:16.503Z,1.30
2019-06-27T21:40:46.594Z,1.37
2019-06-27T21:43:16.696Z,1.43
2019-06-27T21:45:46.754Z,1.50
2019-06-27T21:48:18.763Z,1.30
2019-06-27T21:50:48.955Z,1.07
2019-06-27T21:53:19.058Z,1.40
2019-06-27T21:55:49.156Z,1.40
2019-06-27T21:58:19.179Z,1.20
2019-06-27T22:00:49.450Z,1.30
2019-06-27T22:03:19.544Z,1.10
2019-06-27T22:05:49.596Z,1.57
2019-06-27T22:08:19.666Z,1.40
2019-06-27T22:10:50.101Z,1.20
2019-06-27T22:13:20.175Z,1.33
2019-06-27T22:15:50.245Z,1.30
2019-06-27T22:18:20.319Z,1.27
2019-06-27T22:20:50.378Z,1.40
2019-06-27T22:23:20.465Z,1.40
2019-06-27T22:25:50.487Z,1.40
2019-06-27T22:28:20.662Z,1.40
2019-06-27T22:30:50.717Z,1.23
2019-06-27T22:33:20.774Z,1.03
2019-06-27T22:35:51.110Z,1.53
2019-06-27T22:38:39.297Z,1.47
2019-06-27T22:41:27.206Z,1.60
2019-06-27T22:44:14.949Z,1.43
2019-06-27T22:47:02.801Z,1.53
2019-06-27T22:49:32.229Z,1.40
2019-06-27T22:52:24.083Z,1.53
2019-06-27T22:54:55.937Z,1.50
2019-06-27T22:57:26.012Z,1.40
2019-06-27T22:59:56.860Z,1.40
2019-06-27T23:02:26.919Z,1.20
2019-06-27T23:04:57.011Z,1.67
2019-06-27T23:07:27.083Z,1.70
2019-06-27T23:09:57.635Z,1.20
2019-06-27T23:12:27.770Z,1.20
2019-06-27T23:14:59.073Z,1.33
2019-06-27T23:17:29.059Z,1.80
2019-06-27T23:19:59.152Z,1.93
2019-06-27T23:22:29.219Z,1.57
2019-06-27T23:24:59.229Z,1.57
2019-06-27T23:27:29.331Z,1.40
2019-06-27T23:29:59.357Z,1.33
2019-06-27T23:32:29.420Z,1.40
2019-06-27T23:34:59.520Z,1.63
2019-06-27T23:37:29.665Z,1.23
2019-06-27T23:40:13.538Z,1.77
2019-06-27T23:42:31.505Z,1.50
2019-06-27T23:45:01.874Z,1.63
2019-06-27T23:47:32.103Z,1.77
2019-06-27T23:50:02.190Z,1.93
2019-06-27T23:52:32.651Z,2.10
2019-06-27T23:55:02.726Z,2.73
2019-06-27T23:57:32.734Z,2.40
